sensor_id;sensor_type;location;lat;lon;timestamp;P1;durP1;ratioP1;P2;durP2;ratioP2
74922;SDS011;64715;44.760;37.678;2022-12-07T00:00:18;10.15;;;3.35;;
74922;SDS011;64715;44.760;37.678;2022-12-07T00:01:21;11.75;;;2.90;;
74922;SDS011;64715;44.760;37.678;2022-12-07T00:02:23;10.33;;;2.97;;
74922;SDS011;64715;44.760;37.678;2022-12-07T00:03:24;9.77;;;2.80;;
74922;SDS011;64715;44.760;37.678;2022-12-07T00:04:25;10.32;;;2.88;;
74922;SDS011;64715;44.760;37.678;2022-12-07T00:05:27;9.57;;;2.83;;
74922;SDS011;64715;44.760;37.678;2022-12-07T00:06:31;10.30;;;3.17;;
74922;SDS011;64715;44.760;37.678;2022-12-07T00:07:36;14.32;;;3.00;;
74922;SDS011;64715;44.760;37.678;2022-12-07T00:08:37;10.82;;;3.08;;
74922;SDS011;64715;44.760;37.678;2022-12-07T00:09:38;12.63;;;3.45;;
74922;SDS011;64715;44.760;37.678;2022-12-07T00:10:41;9.27;;;2.60;;
74922;SDS011;64715;44.760;37.678;2022-12-07T00:11:44;9.00;;;2.13;;
74922;SDS011;64715;44.760;37.678;2022-12-07T00:12:48;11.27;;;3.00;;
74922;SDS011;64715;44.760;37.678;2022-12-07T00:13:52;9.63;;;2.47;;
74922;SDS011;64715;44.760;37.678;2022-12-07T00:14:57;9.32;;;2.67;;
74922;SDS011;64715;44.760;37.678;2022-12-07T00:16:01;11.27;;;2.90;;
74922;SDS011;64715;44.760;37.678;2022-12-07T00:17:04;11.93;;;3.30;;
74922;SDS011;64715;44.760;37.678;2022-12-07T00:18:05;11.65;;;3.40;;
74922;SDS011;64715;44.760;37.678;2022-12-07T00:19:06;9.45;;;3.15;;
74922;SDS011;64715;44.760;37.678;2022-12-07T00:20:08;9.05;;;2.88;;
74922;SDS011;64715;44.760;37.678;2022-12-07T00:21:10;9.88;;;3.30;;
74922;SDS011;64715;44.760;37.678;2022-12-07T00:22:19;10.38;;;3.63;;
74922;SDS011;64715;44.760;37.678;2022-12-07T00:23:20;11.77;;;3.55;;
74922;SDS011;64715;44.760;37.678;2022-12-07T00:24:21;12.95;;;3.97;;
74922;SDS011;64715;44.760;37.678;2022-12-07T00:25:22;15.38;;;5.40;;
74922;SDS011;64715;44.760;37.678;2022-12-07T00:26:24;17.30;;;5.85;;
74922;SDS011;64715;44.760;37.678;2022-12-07T00:27:27;14.43;;;5.30;;
74922;SDS011;64715;44.760;37.678;2022-12-07T00:28:28;15.07;;;4.70;;
74922;SDS011;64715;44.760;37.678;2022-12-07T00:29:29;11.73;;;4.10;;
74922;SDS011;64715;44.760;37.678;2022-12-07T00:30:30;14.30;;;4.63;;
74922;SDS011;64715;44.760;37.678;2022-12-07T00:31:34;13.77;;;4.15;;
74922;SDS011;64715;44.760;37.678;2022-12-07T00:32:38;11.73;;;4.20;;
74922;SDS011;64715;44.760;37.678;2022-12-07T00:33:40;13.63;;;4.53;;
74922;SDS011;64715;44.760;37.678;2022-12-07T00:34:41;11.82;;;3.92;;
74922;SDS011;64715;44.760;37.678;2022-12-07T00:35:42;13.88;;;4.15;;
74922;SDS011;64715;44.760;37.678;2022-12-07T00:36:43;13.65;;;4.35;;
74922;SDS011;64715;44.760;37.678;2022-12-07T00:37:44;13.70;;;4.68;;
74922;SDS011;64715;44.760;37.678;2022-12-07T00:38:45;14.15;;;4.13;;
74922;SDS011;64715;44.760;37.678;2022-12-07T00:39:47;12.15;;;4.03;;
74922;SDS011;64715;44.760;37.678;2022-12-07T00:40:55;11.53;;;4.30;;
74922;SDS011;64715;44.760;37.678;2022-12-07T00:41:57;15.73;;;4.03;;
74922;SDS011;64715;44.760;37.678;2022-12-07T00:42:58;12.77;;;3.78;;
74922;SDS011;64715;44.760;37.678;2022-12-07T00:43:59;12.60;;;4.07;;
74922;SDS011;64715;44.760;37.678;2022-12-07T00:45:00;12.75;;;3.72;;
74922;SDS011;64715;44.760;37.678;2022-12-07T00:46:01;12.02;;;3.88;;
74922;SDS011;64715;44.760;37.678;2022-12-07T00:47:02;17.33;;;4.38;;
74922;SDS011;64715;44.760;37.678;2022-12-07T00:48:03;12.93;;;4.15;;
74922;SDS011;64715;44.760;37.678;2022-12-07T00:49:04;14.17;;;4.00;;
74922;SDS011;64715;44.760;37.678;2022-12-07T00:50:06;12.00;;;4.40;;
74922;SDS011;64715;44.760;37.678;2022-12-07T00:51:07;15.85;;;5.15;;
74922;SDS011;64715;44.760;37.678;2022-12-07T00:52:10;15.13;;;5.10;;
74922;SDS011;64715;44.760;37.678;2022-12-07T00:53:11;18.38;;;5.07;;
74922;SDS011;64715;44.760;37.678;2022-12-07T00:54:12;15.35;;;4.85;;
74922;SDS011;64715;44.760;37.678;2022-12-07T00:55:13;16.85;;;4.90;;
74922;SDS011;64715;44.760;37.678;2022-12-07T00:56:15;13.45;;;4.53;;
74922;SDS011;64715;44.760;37.678;2022-12-07T00:57:18;17.48;;;4.63;;
74922;SDS011;64715;44.760;37.678;2022-12-07T00:58:19;11.70;;;4.13;;
74922;SDS011;64715;44.760;37.678;2022-12-07T00:59:20;20.05;;;4.95;;
74922;SDS011;64715;44.760;37.678;2022-12-07T01:00:21;15.48;;;5.00;;
74922;SDS011;64715;44.760;37.678;2022-12-07T01:01:22;15.57;;;5.20;;
74922;SDS011;64715;44.760;37.678;2022-12-07T01:02:25;16.75;;;5.00;;
74922;SDS011;64715;44.760;37.678;2022-12-07T01:03:26;17.48;;;5.00;;
74922;SDS011;64715;44.760;37.678;2022-12-07T01:04:27;28.20;;;5.50;;
74922;SDS011;64715;44.760;37.678;2022-12-07T01:05:28;21.17;;;5.47;;
74922;SDS011;64715;44.760;37.678;2022-12-07T01:06:29;19.87;;;5.27;;
74922;SDS011;64715;44.760;37.678;2022-12-07T01:07:30;18.08;;;5.63;;
74922;SDS011;64715;44.760;37.678;2022-12-07T01:08:32;18.60;;;5.47;;
74922;SDS011;64715;44.760;37.678;2022-12-07T01:09:33;18.80;;;5.40;;
74922;SDS011;64715;44.760;37.678;2022-12-07T01:10:35;19.90;;;5.25;;
74922;SDS011;64715;44.760;37.678;2022-12-07T01:11:35;18.08;;;5.50;;
74922;SDS011;64715;44.760;37.678;2022-12-07T01:12:36;18.98;;;5.63;;
74922;SDS011;64715;44.760;37.678;2022-12-07T01:13:37;21.47;;;5.43;;
74922;SDS011;64715;44.760;37.678;2022-12-07T01:14:39;20.05;;;5.57;;
74922;SDS011;64715;44.760;37.678;2022-12-07T01:15:42;20.52;;;5.72;;
74922;SDS011;64715;44.760;37.678;2022-12-07T01:16:44;20.90;;;5.80;;
74922;SDS011;64715;44.760;37.678;2022-12-07T01:17:45;26.65;;;6.50;;
74922;SDS011;64715;44.760;37.678;2022-12-07T01:18:47;29.85;;;7.53;;
74922;SDS011;64715;44.760;37.678;2022-12-07T01:19:50;37.78;;;9.65;;
74922;SDS011;64715;44.760;37.678;2022-12-07T01:21:01;53.38;;;11.20;;
74922;SDS011;64715;44.760;37.678;2022-12-07T01:22:07;56.17;;;12.03;;
74922;SDS011;64715;44.760;37.678;2022-12-07T01:23:08;51.95;;;13.35;;
74922;SDS011;64715;44.760;37.678;2022-12-07T01:24:09;58.83;;;14.13;;
74922;SDS011;64715;44.760;37.678;2022-12-07T01:25:11;57.67;;;12.63;;
74922;SDS011;64715;44.760;37.678;2022-12-07T01:26:15;55.50;;;11.98;;
74922;SDS011;64715;44.760;37.678;2022-12-07T01:27:18;51.38;;;11.23;;
74922;SDS011;64715;44.760;37.678;2022-12-07T01:28:19;35.67;;;8.13;;
74922;SDS011;64715;44.760;37.678;2022-12-07T01:29:20;30.35;;;8.00;;
74922;SDS011;64715;44.760;37.678;2022-12-07T01:30:21;33.90;;;8.20;;
74922;SDS011;64715;44.760;37.678;2022-12-07T01:31:23;26.27;;;7.18;;
74922;SDS011;64715;44.760;37.678;2022-12-07T01:32:25;30.90;;;9.18;;
74922;SDS011;64715;44.760;37.678;2022-12-07T01:33:28;31.88;;;8.02;;
74922;SDS011;64715;44.760;37.678;2022-12-07T01:34:30;30.55;;;7.70;;
74922;SDS011;64715;44.760;37.678;2022-12-07T01:35:33;28.40;;;7.38;;
74922;SDS011;64715;44.760;37.678;2022-12-07T01:36:35;30.35;;;7.93;;
74922;SDS011;64715;44.760;37.678;2022-12-07T01:37:37;33.10;;;7.22;;
74922;SDS011;64715;44.760;37.678;2022-12-07T01:38:39;24.90;;;6.40;;
74922;SDS011;64715;44.760;37.678;2022-12-07T01:39:40;30.63;;;6.47;;
74922;SDS011;64715;44.760;37.678;2022-12-07T01:40:42;28.13;;;6.33;;
74922;SDS011;64715;44.760;37.678;2022-12-07T01:41:43;22.92;;;6.35;;
74922;SDS011;64715;44.760;37.678;2022-12-07T01:42:44;30.00;;;6.82;;
74922;SDS011;64715;44.760;37.678;2022-12-07T01:45:25;31.85;;;7.28;;
74922;SDS011;64715;44.760;37.678;2022-12-07T01:46:38;35.13;;;9.63;;
74922;SDS011;64715;44.760;37.678;2022-12-07T01:47:41;32.40;;;11.25;;
74922;SDS011;64715;44.760;37.678;2022-12-07T01:48:49;40.25;;;13.23;;
74922;SDS011;64715;44.760;37.678;2022-12-07T01:49:50;47.25;;;13.90;;
74922;SDS011;64715;44.760;37.678;2022-12-07T01:50:51;35.97;;;10.70;;
74922;SDS011;64715;44.760;37.678;2022-12-07T01:52:36;36.53;;;9.45;;
74922;SDS011;64715;44.760;37.678;2022-12-07T01:53:27;35.60;;;7.68;;
74922;SDS011;64715;44.760;37.678;2022-12-07T01:54:30;32.42;;;7.93;;
74922;SDS011;64715;44.760;37.678;2022-12-07T01:55:33;34.90;;;8.35;;
74922;SDS011;64715;44.760;37.678;2022-12-07T01:56:37;37.63;;;8.55;;
74922;SDS011;64715;44.760;37.678;2022-12-07T01:57:47;37.28;;;8.35;;
74922;SDS011;64715;44.760;37.678;2022-12-07T01:58:50;43.58;;;7.93;;
74922;SDS011;64715;44.760;37.678;2022-12-07T01:59:53;43.17;;;9.02;;
74922;SDS011;64715;44.760;37.678;2022-12-07T02:00:55;54.03;;;11.00;;
74922;SDS011;64715;44.760;37.678;2022-12-07T02:01:56;62.08;;;12.27;;
74922;SDS011;64715;44.760;37.678;2022-12-07T02:03:11;58.50;;;11.35;;
74922;SDS011;64715;44.760;37.678;2022-12-07T02:04:21;48.72;;;10.38;;
74922;SDS011;64715;44.760;37.678;2022-12-07T02:05:23;48.38;;;10.05;;
74922;SDS011;64715;44.760;37.678;2022-12-07T02:06:25;38.80;;;8.38;;
74922;SDS011;64715;44.760;37.678;2022-12-07T02:07:27;46.78;;;9.20;;
74922;SDS011;64715;44.760;37.678;2022-12-07T02:08:29;55.28;;;11.70;;
74922;SDS011;64715;44.760;37.678;2022-12-07T02:09:32;57.95;;;12.63;;
74922;SDS011;64715;44.760;37.678;2022-12-07T02:10:33;59.13;;;11.33;;
74922;SDS011;64715;44.760;37.678;2022-12-07T02:11:34;52.42;;;11.20;;
74922;SDS011;64715;44.760;37.678;2022-12-07T02:12:35;52.67;;;11.70;;
74922;SDS011;64715;44.760;37.678;2022-12-07T02:13:37;44.08;;;9.60;;
74922;SDS011;64715;44.760;37.678;2022-12-07T02:14:41;35.33;;;8.15;;
74922;SDS011;64715;44.760;37.678;2022-12-07T02:17:27;38.75;;;8.98;;
74922;SDS011;64715;44.760;37.678;2022-12-07T02:18:38;44.67;;;10.23;;
74922;SDS011;64715;44.760;37.678;2022-12-07T02:21:34;52.28;;;13.27;;
74922;SDS011;64715;44.760;37.678;2022-12-07T02:30:18;40.42;;;10.90;;
74922;SDS011;64715;44.760;37.678;2022-12-07T02:31:20;38.60;;;11.02;;
74922;SDS011;64715;44.760;37.678;2022-12-07T02:32:25;39.83;;;11.00;;
74922;SDS011;64715;44.760;37.678;2022-12-07T02:33:50;37.15;;;10.13;;
74922;SDS011;64715;44.760;37.678;2022-12-07T02:35:03;33.22;;;10.18;;
74922;SDS011;64715;44.760;37.678;2022-12-07T02:36:08;42.28;;;10.65;;
74922;SDS011;64715;44.760;37.678;2022-12-07T02:38:50;32.65;;;10.15;;
74922;SDS011;64715;44.760;37.678;2022-12-07T02:40:41;34.78;;;10.55;;
74922;SDS011;64715;44.760;37.678;2022-12-07T02:41:35;30.67;;;10.02;;
74922;SDS011;64715;44.760;37.678;2022-12-07T02:42:43;38.83;;;11.07;;
74922;SDS011;64715;44.760;37.678;2022-12-07T02:43:54;31.40;;;9.75;;
74922;SDS011;64715;44.760;37.678;2022-12-07T02:44:59;31.27;;;9.33;;
74922;SDS011;64715;44.760;37.678;2022-12-07T02:46:02;32.50;;;9.20;;
74922;SDS011;64715;44.760;37.678;2022-12-07T02:47:08;26.23;;;8.50;;
74922;SDS011;64715;44.760;37.678;2022-12-07T02:48:12;35.53;;;9.65;;
74922;SDS011;64715;44.760;37.678;2022-12-07T02:49:17;31.65;;;9.13;;
74922;SDS011;64715;44.760;37.678;2022-12-07T02:50:20;36.08;;;9.15;;
74922;SDS011;64715;44.760;37.678;2022-12-07T02:51:21;30.60;;;9.18;;
74922;SDS011;64715;44.760;37.678;2022-12-07T02:52:23;31.83;;;9.40;;
74922;SDS011;64715;44.760;37.678;2022-12-07T02:53:34;29.88;;;9.02;;
74922;SDS011;64715;44.760;37.678;2022-12-07T02:54:37;35.43;;;8.97;;
74922;SDS011;64715;44.760;37.678;2022-12-07T02:55:38;32.28;;;8.65;;
74922;SDS011;64715;44.760;37.678;2022-12-07T02:57:56;20.92;;;5.53;;
74922;SDS011;64715;44.760;37.678;2022-12-07T03:00:21;21.83;;;4.80;;
74922;SDS011;64715;44.760;37.678;2022-12-07T03:01:26;19.40;;;4.50;;
74922;SDS011;64715;44.760;37.678;2022-12-07T03:03:00;14.88;;;3.63;;
74922;SDS011;64715;44.760;37.678;2022-12-07T03:04:21;14.10;;;3.45;;
74922;SDS011;64715;44.760;37.678;2022-12-07T03:05:51;18.98;;;3.90;;
74922;SDS011;64715;44.760;37.678;2022-12-07T03:10:19;16.08;;;3.40;;
74922;SDS011;64715;44.760;37.678;2022-12-07T03:11:44;18.65;;;3.83;;
74922;SDS011;64715;44.760;37.678;2022-12-07T03:14:21;16.00;;;3.90;;
74922;SDS011;64715;44.760;37.678;2022-12-07T03:16:16;17.70;;;3.83;;
74922;SDS011;64715;44.760;37.678;2022-12-07T03:17:15;18.77;;;3.72;;
74922;SDS011;64715;44.760;37.678;2022-12-07T03:18:20;17.77;;;4.20;;
74922;SDS011;64715;44.760;37.678;2022-12-07T03:19:24;18.73;;;4.57;;
74922;SDS011;64715;44.760;37.678;2022-12-07T03:20:28;21.77;;;4.43;;
74922;SDS011;64715;44.760;37.678;2022-12-07T03:21:37;17.70;;;4.45;;
74922;SDS011;64715;44.760;37.678;2022-12-07T03:22:40;16.20;;;3.83;;
74922;SDS011;64715;44.760;37.678;2022-12-07T03:23:47;17.98;;;4.40;;
74922;SDS011;64715;44.760;37.678;2022-12-07T03:24:55;16.85;;;4.22;;
74922;SDS011;64715;44.760;37.678;2022-12-07T03:25:59;16.27;;;3.70;;
74922;SDS011;64715;44.760;37.678;2022-12-07T03:27:11;14.25;;;4.10;;
74922;SDS011;64715;44.760;37.678;2022-12-07T03:28:17;12.98;;;3.78;;
74922;SDS011;64715;44.760;37.678;2022-12-07T03:29:26;16.40;;;3.90;;
74922;SDS011;64715;44.760;37.678;2022-12-07T03:31:17;15.82;;;3.83;;
74922;SDS011;64715;44.760;37.678;2022-12-07T03:32:20;11.83;;;3.43;;
74922;SDS011;64715;44.760;37.678;2022-12-07T03:34:40;16.13;;;3.97;;
74922;SDS011;64715;44.760;37.678;2022-12-07T03:35:57;15.40;;;4.20;;
74922;SDS011;64715;44.760;37.678;2022-12-07T03:37:07;15.57;;;4.20;;
74922;SDS011;64715;44.760;37.678;2022-12-07T03:38:14;16.23;;;3.92;;
74922;SDS011;64715;44.760;37.678;2022-12-07T03:39:39;15.40;;;3.35;;
74922;SDS011;64715;44.760;37.678;2022-12-07T03:41:57;13.23;;;3.50;;
74922;SDS011;64715;44.760;37.678;2022-12-07T03:43:00;15.60;;;3.50;;
74922;SDS011;64715;44.760;37.678;2022-12-07T03:44:03;15.10;;;3.33;;
74922;SDS011;64715;44.760;37.678;2022-12-07T03:45:05;14.15;;;3.28;;
74922;SDS011;64715;44.760;37.678;2022-12-07T03:49:32;14.88;;;3.50;;
74922;SDS011;64715;44.760;37.678;2022-12-07T03:52:12;13.85;;;3.45;;
74922;SDS011;64715;44.760;37.678;2022-12-07T03:53:35;11.90;;;3.13;;
74922;SDS011;64715;44.760;37.678;2022-12-07T03:55:00;12.88;;;3.83;;
74922;SDS011;64715;44.760;37.678;2022-12-07T03:56:32;14.05;;;4.72;;
74922;SDS011;64715;44.760;37.678;2022-12-07T03:57:34;13.03;;;4.83;;
74922;SDS011;64715;44.760;37.678;2022-12-07T03:58:36;19.00;;;5.18;;
74922;SDS011;64715;44.760;37.678;2022-12-07T03:59:39;15.63;;;5.13;;
74922;SDS011;64715;44.760;37.678;2022-12-07T04:00:42;16.38;;;5.40;;
74922;SDS011;64715;44.760;37.678;2022-12-07T04:01:44;14.70;;;5.00;;
74922;SDS011;64715;44.760;37.678;2022-12-07T04:02:52;15.13;;;4.40;;
74922;SDS011;64715;44.760;37.678;2022-12-07T04:03:54;14.77;;;4.43;;
74922;SDS011;64715;44.760;37.678;2022-12-07T04:04:55;13.75;;;3.72;;
74922;SDS011;64715;44.760;37.678;2022-12-07T04:05:57;18.55;;;4.68;;
74922;SDS011;64715;44.760;37.678;2022-12-07T04:06:59;11.93;;;3.63;;
74922;SDS011;64715;44.760;37.678;2022-12-07T04:08:00;15.88;;;4.88;;
74922;SDS011;64715;44.760;37.678;2022-12-07T04:09:01;15.93;;;5.13;;
74922;SDS011;64715;44.760;37.678;2022-12-07T04:10:02;15.57;;;4.60;;
74922;SDS011;64715;44.760;37.678;2022-12-07T04:11:04;15.45;;;4.93;;
74922;SDS011;64715;44.760;37.678;2022-12-07T04:12:06;14.35;;;4.65;;
74922;SDS011;64715;44.760;37.678;2022-12-07T04:13:08;16.35;;;5.15;;
74922;SDS011;64715;44.760;37.678;2022-12-07T04:14:09;16.45;;;6.20;;
74922;SDS011;64715;44.760;37.678;2022-12-07T04:15:19;21.77;;;6.90;;
74922;SDS011;64715;44.760;37.678;2022-12-07T04:16:20;19.23;;;5.60;;
74922;SDS011;64715;44.760;37.678;2022-12-07T04:17:21;20.97;;;6.13;;
74922;SDS011;64715;44.760;37.678;2022-12-07T04:18:22;17.35;;;5.53;;
74922;SDS011;64715;44.760;37.678;2022-12-07T04:19:25;21.52;;;5.97;;
74922;SDS011;64715;44.760;37.678;2022-12-07T04:20:30;21.35;;;5.70;;
74922;SDS011;64715;44.760;37.678;2022-12-07T04:21:31;17.70;;;5.05;;
74922;SDS011;64715;44.760;37.678;2022-12-07T04:22:32;13.18;;;4.32;;
74922;SDS011;64715;44.760;37.678;2022-12-07T04:23:33;13.23;;;4.65;;
74922;SDS011;64715;44.760;37.678;2022-12-07T04:24:34;15.90;;;4.70;;
74922;SDS011;64715;44.760;37.678;2022-12-07T04:25:36;16.52;;;5.25;;
74922;SDS011;64715;44.760;37.678;2022-12-07T04:26:37;20.57;;;5.67;;
74922;SDS011;64715;44.760;37.678;2022-12-07T04:27:38;32.72;;;14.50;;
74922;SDS011;64715;44.760;37.678;2022-12-07T04:28:39;21.75;;;5.97;;
74922;SDS011;64715;44.760;37.678;2022-12-07T04:29:40;25.50;;;6.55;;
74922;SDS011;64715;44.760;37.678;2022-12-07T04:30:41;20.38;;;6.20;;
74922;SDS011;64715;44.760;37.678;2022-12-07T04:31:42;23.35;;;6.28;;
74922;SDS011;64715;44.760;37.678;2022-12-07T04:32:44;19.67;;;6.13;;
74922;SDS011;64715;44.760;37.678;2022-12-07T04:33:46;18.70;;;6.47;;
74922;SDS011;64715;44.760;37.678;2022-12-07T04:34:47;16.40;;;6.38;;
74922;SDS011;64715;44.760;37.678;2022-12-07T04:35:48;17.45;;;7.18;;
74922;SDS011;64715;44.760;37.678;2022-12-07T04:36:49;18.95;;;8.02;;
74922;SDS011;64715;44.760;37.678;2022-12-07T04:37:50;26.48;;;11.02;;
74922;SDS011;64715;44.760;37.678;2022-12-07T04:38:53;24.85;;;9.68;;
74922;SDS011;64715;44.760;37.678;2022-12-07T04:39:55;23.38;;;8.82;;
74922;SDS011;64715;44.760;37.678;2022-12-07T04:40:56;23.13;;;10.00;;
74922;SDS011;64715;44.760;37.678;2022-12-07T04:41:57;26.92;;;10.38;;
74922;SDS011;64715;44.760;37.678;2022-12-07T04:42:59;16.95;;;6.50;;
74922;SDS011;64715;44.760;37.678;2022-12-07T04:44:01;33.63;;;11.65;;
74922;SDS011;64715;44.760;37.678;2022-12-07T04:45:07;17.15;;;5.28;;
74922;SDS011;64715;44.760;37.678;2022-12-07T04:46:09;13.05;;;4.68;;
74922;SDS011;64715;44.760;37.678;2022-12-07T04:47:10;14.98;;;6.05;;
74922;SDS011;64715;44.760;37.678;2022-12-07T04:48:11;18.98;;;8.35;;
74922;SDS011;64715;44.760;37.678;2022-12-07T04:49:12;20.67;;;9.30;;
74922;SDS011;64715;44.760;37.678;2022-12-07T04:50:14;17.37;;;7.13;;
74922;SDS011;64715;44.760;37.678;2022-12-07T04:51:16;27.42;;;11.50;;
74922;SDS011;64715;44.760;37.678;2022-12-07T04:52:20;22.98;;;9.63;;
74922;SDS011;64715;44.760;37.678;2022-12-07T04:53:21;21.80;;;8.85;;
74922;SDS011;64715;44.760;37.678;2022-12-07T04:54:22;19.55;;;8.52;;
74922;SDS011;64715;44.760;37.678;2022-12-07T04:55:23;13.20;;;5.30;;
74922;SDS011;64715;44.760;37.678;2022-12-07T04:56:24;12.70;;;4.75;;
74922;SDS011;64715;44.760;37.678;2022-12-07T04:57:26;24.10;;;9.38;;
74922;SDS011;64715;44.760;37.678;2022-12-07T04:58:27;25.90;;;10.43;;
74922;SDS011;64715;44.760;37.678;2022-12-07T04:59:28;34.08;;;13.90;;
74922;SDS011;64715;44.760;37.678;2022-12-07T05:00:29;25.92;;;10.57;;
74922;SDS011;64715;44.760;37.678;2022-12-07T05:01:30;18.85;;;8.52;;
74922;SDS011;64715;44.760;37.678;2022-12-07T05:02:32;18.90;;;7.25;;
74922;SDS011;64715;44.760;37.678;2022-12-07T05:03:33;17.92;;;6.63;;
74922;SDS011;64715;44.760;37.678;2022-12-07T05:04:34;18.92;;;6.28;;
74922;SDS011;64715;44.760;37.678;2022-12-07T05:05:35;15.07;;;5.57;;
74922;SDS011;64715;44.760;37.678;2022-12-07T05:06:36;13.95;;;5.55;;
74922;SDS011;64715;44.760;37.678;2022-12-07T05:07:37;17.48;;;5.93;;
74922;SDS011;64715;44.760;37.678;2022-12-07T05:08:38;16.42;;;5.50;;
74922;SDS011;64715;44.760;37.678;2022-12-07T05:09:39;13.93;;;4.72;;
74922;SDS011;64715;44.760;37.678;2022-12-07T05:10:40;13.50;;;4.88;;
74922;SDS011;64715;44.760;37.678;2022-12-07T05:11:41;10.25;;;3.80;;
74922;SDS011;64715;44.760;37.678;2022-12-07T05:12:44;8.83;;;3.07;;
74922;SDS011;64715;44.760;37.678;2022-12-07T05:13:46;9.00;;;2.78;;
74922;SDS011;64715;44.760;37.678;2022-12-07T05:14:47;7.95;;;2.63;;
74922;SDS011;64715;44.760;37.678;2022-12-07T05:15:48;9.30;;;2.60;;
74922;SDS011;64715;44.760;37.678;2022-12-07T05:16:50;25.27;;;13.43;;
74922;SDS011;64715;44.760;37.678;2022-12-07T05:17:51;21.98;;;10.13;;
74922;SDS011;64715;44.760;37.678;2022-12-07T05:18:52;13.43;;;4.68;;
74922;SDS011;64715;44.760;37.678;2022-12-07T05:19:53;14.18;;;4.78;;
74922;SDS011;64715;44.760;37.678;2022-12-07T05:20:54;57.60;;;7.82;;
74922;SDS011;64715;44.760;37.678;2022-12-07T05:21:55;15.35;;;5.43;;
74922;SDS011;64715;44.760;37.678;2022-12-07T05:22:57;18.48;;;6.53;;
74922;SDS011;64715;44.760;37.678;2022-12-07T05:23:58;19.58;;;7.25;;
74922;SDS011;64715;44.760;37.678;2022-12-07T05:25:00;15.52;;;6.50;;
74922;SDS011;64715;44.760;37.678;2022-12-07T05:26:01;15.98;;;5.93;;
74922;SDS011;64715;44.760;37.678;2022-12-07T05:27:02;21.58;;;6.65;;
74922;SDS011;64715;44.760;37.678;2022-12-07T05:28:03;17.90;;;6.70;;
74922;SDS011;64715;44.760;37.678;2022-12-07T05:29:05;18.02;;;5.70;;
74922;SDS011;64715;44.760;37.678;2022-12-07T05:30:07;15.70;;;4.40;;
74922;SDS011;64715;44.760;37.678;2022-12-07T05:31:08;20.85;;;10.10;;
74922;SDS011;64715;44.760;37.678;2022-12-07T05:32:09;15.18;;;4.80;;
74922;SDS011;64715;44.760;37.678;2022-12-07T05:33:10;14.27;;;4.78;;
74922;SDS011;64715;44.760;37.678;2022-12-07T05:34:11;12.20;;;3.65;;
74922;SDS011;64715;44.760;37.678;2022-12-07T05:35:13;12.73;;;4.05;;
74922;SDS011;64715;44.760;37.678;2022-12-07T05:36:15;11.52;;;2.80;;
74922;SDS011;64715;44.760;37.678;2022-12-07T05:37:16;7.72;;;2.30;;
74922;SDS011;64715;44.760;37.678;2022-12-07T05:38:17;7.93;;;2.28;;
74922;SDS011;64715;44.760;37.678;2022-12-07T05:39:18;27.87;;;16.30;;
74922;SDS011;64715;44.760;37.678;2022-12-07T05:40:20;25.73;;;13.68;;
74922;SDS011;64715;44.760;37.678;2022-12-07T05:41:21;15.55;;;5.53;;
74922;SDS011;64715;44.760;37.678;2022-12-07T05:42:41;18.88;;;7.15;;
74922;SDS011;64715;44.760;37.678;2022-12-07T05:43:43;15.05;;;4.50;;
74922;SDS011;64715;44.760;37.678;2022-12-07T05:44:45;13.13;;;4.70;;
74922;SDS011;64715;44.760;37.678;2022-12-07T05:45:47;13.90;;;5.70;;
74922;SDS011;64715;44.760;37.678;2022-12-07T05:46:48;11.20;;;4.05;;
74922;SDS011;64715;44.760;37.678;2022-12-07T05:47:49;17.23;;;8.20;;
74922;SDS011;64715;44.760;37.678;2022-12-07T05:48:50;11.68;;;4.28;;
74922;SDS011;64715;44.760;37.678;2022-12-07T05:49:51;11.63;;;3.97;;
74922;SDS011;64715;44.760;37.678;2022-12-07T05:50:52;10.77;;;3.50;;
74922;SDS011;64715;44.760;37.678;2022-12-07T05:51:53;103.80;;;84.60;;
74922;SDS011;64715;44.760;37.678;2022-12-07T05:52:54;58.95;;;48.72;;
74922;SDS011;64715;44.760;37.678;2022-12-07T05:53:55;22.17;;;14.35;;
74922;SDS011;64715;44.760;37.678;2022-12-07T05:54:56;15.23;;;7.40;;
74922;SDS011;64715;44.760;37.678;2022-12-07T05:55:57;12.13;;;5.60;;
74922;SDS011;64715;44.760;37.678;2022-12-07T05:56:58;11.40;;;4.57;;
74922;SDS011;64715;44.760;37.678;2022-12-07T05:57:59;17.77;;;5.22;;
74922;SDS011;64715;44.760;37.678;2022-12-07T05:59:18;17.08;;;5.47;;
74922;SDS011;64715;44.760;37.678;2022-12-07T06:00:27;15.82;;;5.20;;
74922;SDS011;64715;44.760;37.678;2022-12-07T06:01:28;13.90;;;5.13;;
74922;SDS011;64715;44.760;37.678;2022-12-07T06:02:29;13.18;;;4.10;;
74922;SDS011;64715;44.760;37.678;2022-12-07T06:03:30;13.52;;;4.63;;
74922;SDS011;64715;44.760;37.678;2022-12-07T06:04:32;12.10;;;4.65;;
74922;SDS011;64715;44.760;37.678;2022-12-07T06:05:35;18.90;;;9.90;;
74922;SDS011;64715;44.760;37.678;2022-12-07T06:06:36;13.73;;;5.82;;
74922;SDS011;64715;44.760;37.678;2022-12-07T06:07:37;11.73;;;4.35;;
74922;SDS011;64715;44.760;37.678;2022-12-07T06:08:38;11.63;;;4.20;;
74922;SDS011;64715;44.760;37.678;2022-12-07T06:09:39;10.70;;;3.50;;
74922;SDS011;64715;44.760;37.678;2022-12-07T06:10:41;11.45;;;3.90;;
74922;SDS011;64715;44.760;37.678;2022-12-07T06:11:43;12.20;;;3.75;;
74922;SDS011;64715;44.760;37.678;2022-12-07T06:13:03;11.73;;;3.63;;
74922;SDS011;64715;44.760;37.678;2022-12-07T06:14:04;12.50;;;3.90;;
74922;SDS011;64715;44.760;37.678;2022-12-07T06:15:05;11.75;;;3.85;;
74922;SDS011;64715;44.760;37.678;2022-12-07T06:16:07;12.07;;;4.10;;
74922;SDS011;64715;44.760;37.678;2022-12-07T06:17:09;12.45;;;3.55;;
74922;SDS011;64715;44.760;37.678;2022-12-07T06:18:11;15.10;;;4.63;;
74922;SDS011;64715;44.760;37.678;2022-12-07T06:19:12;17.05;;;5.97;;
74922;SDS011;64715;44.760;37.678;2022-12-07T06:20:13;13.30;;;5.70;;
74922;SDS011;64715;44.760;37.678;2022-12-07T06:21:15;11.07;;;4.00;;
74922;SDS011;64715;44.760;37.678;2022-12-07T06:22:16;10.60;;;3.42;;
74922;SDS011;64715;44.760;37.678;2022-12-07T06:23:17;12.20;;;3.30;;
74922;SDS011;64715;44.760;37.678;2022-12-07T06:24:18;10.23;;;3.50;;
74922;SDS011;64715;44.760;37.678;2022-12-07T06:25:20;10.20;;;3.47;;
74922;SDS011;64715;44.760;37.678;2022-12-07T06:26:21;9.90;;;3.43;;
74922;SDS011;64715;44.760;37.678;2022-12-07T06:27:22;10.10;;;2.85;;
74922;SDS011;64715;44.760;37.678;2022-12-07T06:28:23;15.27;;;5.50;;
74922;SDS011;64715;44.760;37.678;2022-12-07T06:29:25;12.93;;;4.28;;
74922;SDS011;64715;44.760;37.678;2022-12-07T06:30:26;9.75;;;3.38;;
74922;SDS011;64715;44.760;37.678;2022-12-07T06:31:27;19.05;;;9.95;;
74922;SDS011;64715;44.760;37.678;2022-12-07T06:32:28;13.00;;;4.18;;
74922;SDS011;64715;44.760;37.678;2022-12-07T06:33:29;12.65;;;4.43;;
74922;SDS011;64715;44.760;37.678;2022-12-07T06:34:31;10.37;;;3.30;;
74922;SDS011;64715;44.760;37.678;2022-12-07T06:35:32;10.67;;;3.70;;
74922;SDS011;64715;44.760;37.678;2022-12-07T06:36:35;9.98;;;3.67;;
74922;SDS011;64715;44.760;37.678;2022-12-07T06:37:36;11.52;;;3.90;;
74922;SDS011;64715;44.760;37.678;2022-12-07T06:38:37;10.82;;;3.90;;
74922;SDS011;64715;44.760;37.678;2022-12-07T06:39:39;12.68;;;4.80;;
74922;SDS011;64715;44.760;37.678;2022-12-07T06:40:40;13.50;;;4.70;;
74922;SDS011;64715;44.760;37.678;2022-12-07T06:41:41;13.73;;;6.63;;